sensor_id;sensor_type;location;lat;lon;timestamp;temperature;humidity
26954;DHT22;14508;50.924;11.600;2023-07-13T00:00:03;21.80;53.40
26954;DHT22;14508;50.924;11.600;2023-07-13T00:02:41;21.70;53.50
26954;DHT22;14508;50.924;11.600;2023-07-13T00:05:10;21.70;53.60
26954;DHT22;14508;50.924;11.600;2023-07-13T00:07:38;21.60;53.60
26954;DHT22;14508;50.924;11.600;2023-07-13T00:10:08;21.60;53.60
26954;DHT22;14508;50.924;11.600;2023-07-13T00:12:36;21.60;53.70
26954;DHT22;14508;50.924;11.600;2023-07-13T00:15:10;21.60;53.80
26954;DHT22;14508;50.924;11.600;2023-07-13T00:17:39;21.60;53.80
26954;DHT22;14508;50.924;11.600;2023-07-13T00:20:09;21.60;53.70
26954;DHT22;14508;50.924;11.600;2023-07-13T00:22:37;21.60;53.70
26954;DHT22;14508;50.924;11.600;2023-07-13T00:25:05;21.50;53.80
26954;DHT22;14508;50.924;11.600;2023-07-13T00:27:33;21.50;53.90
26954;DHT22;14508;50.924;11.600;2023-07-13T00:30:01;21.50;54.10
26954;DHT22;14508;50.924;11.600;2023-07-13T00:32:30;21.50;54.30
26954;DHT22;14508;50.924;11.600;2023-07-13T00:34:59;21.50;54.30
26954;DHT22;14508;50.924;11.600;2023-07-13T00:37:28;21.50;54.30
26954;DHT22;14508;50.924;11.600;2023-07-13T00:39:56;21.50;54.40
26954;DHT22;14508;50.924;11.600;2023-07-13T00:42:24;21.50;54.50
26954;DHT22;14508;50.924;11.600;2023-07-13T00:45:04;21.50;54.60
26954;DHT22;14508;50.924;11.600;2023-07-13T00:47:32;21.50;54.80
26954;DHT22;14508;50.924;11.600;2023-07-13T00:50:00;21.40;54.80
26954;DHT22;14508;50.924;11.600;2023-07-13T00:52:30;21.40;54.90
26954;DHT22;14508;50.924;11.600;2023-07-13T00:54:59;21.40;55.00
26954;DHT22;14508;50.924;11.600;2023-07-13T00:57:27;21.40;55.00
26954;DHT22;14508;50.924;11.600;2023-07-13T00:59:58;21.40;55.00
26954;DHT22;14508;50.924;11.600;2023-07-13T01:02:28;21.40;55.10
26954;DHT22;14508;50.924;11.600;2023-07-13T01:04:57;21.30;55.10
26954;DHT22;14508;50.924;11.600;2023-07-13T01:07:27;21.30;55.10
26954;DHT22;14508;50.924;11.600;2023-07-13T01:09:58;21.30;55.10
26954;DHT22;14508;50.924;11.600;2023-07-13T01:12:25;21.20;55.20
26954;DHT22;14508;50.924;11.600;2023-07-13T01:14:57;21.20;55.30
26954;DHT22;14508;50.924;11.600;2023-07-13T01:17:27;21.20;55.40
26954;DHT22;14508;50.924;11.600;2023-07-13T01:19:55;21.20;55.50
26954;DHT22;14508;50.924;11.600;2023-07-13T01:22:24;21.20;55.60
26954;DHT22;14508;50.924;11.600;2023-07-13T01:24:54;21.10;55.80
26954;DHT22;14508;50.924;11.600;2023-07-13T01:27:24;21.10;55.90
26954;DHT22;14508;50.924;11.600;2023-07-13T01:29:53;21.10;56.10
26954;DHT22;14508;50.924;11.600;2023-07-13T01:32:28;21.00;56.30
26954;DHT22;14508;50.924;11.600;2023-07-13T01:34:58;21.00;56.20
26954;DHT22;14508;50.924;11.600;2023-07-13T01:37:27;21.00;56.30
26954;DHT22;14508;50.924;11.600;2023-07-13T01:40:03;20.90;56.20
26954;DHT22;14508;50.924;11.600;2023-07-13T01:42:31;20.90;56.30
26954;DHT22;14508;50.924;11.600;2023-07-13T01:44:59;20.90;56.30
26954;DHT22;14508;50.924;11.600;2023-07-13T01:47:29;20.80;56.40
26954;DHT22;14508;50.924;11.600;2023-07-13T01:49:58;20.70;56.50
26954;DHT22;14508;50.924;11.600;2023-07-13T01:52:27;20.60;56.50
26954;DHT22;14508;50.924;11.600;2023-07-13T01:54:57;20.60;56.60
26954;DHT22;14508;50.924;11.600;2023-07-13T01:57:25;20.50;56.70
26954;DHT22;14508;50.924;11.600;2023-07-13T01:59:54;20.50;56.90
26954;DHT22;14508;50.924;11.600;2023-07-13T02:02:22;20.40;56.90
26954;DHT22;14508;50.924;11.600;2023-07-13T02:04:50;20.40;57.00
26954;DHT22;14508;50.924;11.600;2023-07-13T02:07:20;20.40;57.20
26954;DHT22;14508;50.924;11.600;2023-07-13T02:09:49;20.30;57.30
26954;DHT22;14508;50.924;11.600;2023-07-13T02:12:17;20.30;57.20
26954;DHT22;14508;50.924;11.600;2023-07-13T02:14:45;20.20;57.00
26954;DHT22;14508;50.924;11.600;2023-07-13T02:17:13;20.30;57.10
26954;DHT22;14508;50.924;11.600;2023-07-13T02:19:41;20.30;57.20
26954;DHT22;14508;50.924;11.600;2023-07-13T02:22:09;20.30;57.20
26954;DHT22;14508;50.924;11.600;2023-07-13T02:24:37;20.30;57.10
26954;DHT22;14508;50.924;11.600;2023-07-13T02:27:06;20.30;56.90
26954;DHT22;14508;50.924;11.600;2023-07-13T02:29:34;20.40;56.80
26954;DHT22;14508;50.924;11.600;2023-07-13T02:32:02;20.40;56.60
26954;DHT22;14508;50.924;11.600;2023-07-13T02:34:30;20.40;56.40
26954;DHT22;14508;50.924;11.600;2023-07-13T02:36:59;20.40;56.00
26954;DHT22;14508;50.924;11.600;2023-07-13T02:39:27;20.40;56.00
26954;DHT22;14508;50.924;11.600;2023-07-13T02:41:55;20.40;56.00
26954;DHT22;14508;50.924;11.600;2023-07-13T02:44:25;20.40;56.00
26954;DHT22;14508;50.924;11.600;2023-07-13T02:46:52;20.40;56.10
26954;DHT22;14508;50.924;11.600;2023-07-13T02:49:21;20.40;56.20
26954;DHT22;14508;50.924;11.600;2023-07-13T02:51:48;20.40;56.00
26954;DHT22;14508;50.924;11.600;2023-07-13T02:54:16;20.40;55.90
26954;DHT22;14508;50.924;11.600;2023-07-13T02:56:44;20.40;55.80
26954;DHT22;14508;50.924;11.600;2023-07-13T02:59:13;20.30;55.70
26954;DHT22;14508;50.924;11.600;2023-07-13T03:01:42;20.40;55.90
26954;DHT22;14508;50.924;11.600;2023-07-13T03:04:10;20.30;55.90
26954;DHT22;14508;50.924;11.600;2023-07-13T03:06:39;20.30;55.80
26954;DHT22;14508;50.924;11.600;2023-07-13T03:09:08;20.30;56.00
26954;DHT22;14508;50.924;11.600;2023-07-13T03:11:41;20.20;56.00
26954;DHT22;14508;50.924;11.600;2023-07-13T03:14:19;20.30;56.20
26954;DHT22;14508;50.924;11.600;2023-07-13T03:16:48;20.20;56.10
26954;DHT22;14508;50.924;11.600;2023-07-13T03:19:16;20.20;56.10
26954;DHT22;14508;50.924;11.600;2023-07-13T03:21:48;20.10;56.10
26954;DHT22;14508;50.924;11.600;2023-07-13T03:24:16;20.10;56.30
26954;DHT22;14508;50.924;11.600;2023-07-13T03:26:44;20.00;56.80
26954;DHT22;14508;50.924;11.600;2023-07-13T03:29:12;20.00;56.40
26954;DHT22;14508;50.924;11.600;2023-07-13T03:31:40;20.00;56.50
26954;DHT22;14508;50.924;11.600;2023-07-13T03:34:09;19.90;56.70
26954;DHT22;14508;50.924;11.600;2023-07-13T03:36:37;19.90;56.80
26954;DHT22;14508;50.924;11.600;2023-07-13T03:39:09;19.90;57.00
26954;DHT22;14508;50.924;11.600;2023-07-13T03:41:45;19.90;57.10
26954;DHT22;14508;50.924;11.600;2023-07-13T03:44:13;19.80;57.00
26954;DHT22;14508;50.924;11.600;2023-07-13T03:46:41;19.80;57.00
26954;DHT22;14508;50.924;11.600;2023-07-13T03:49:10;19.70;57.10
26954;DHT22;14508;50.924;11.600;2023-07-13T03:51:39;19.70;57.30
26954;DHT22;14508;50.924;11.600;2023-07-13T03:54:06;19.70;57.50
26954;DHT22;14508;50.924;11.600;2023-07-13T03:56:34;19.70;57.50
26954;DHT22;14508;50.924;11.600;2023-07-13T03:59:04;19.70;57.50
26954;DHT22;14508;50.924;11.600;2023-07-13T04:01:31;19.70;57.50
26954;DHT22;14508;50.924;11.600;2023-07-13T04:04:00;19.70;57.60
26954;DHT22;14508;50.924;11.600;2023-07-13T04:06:32;19.80;57.80
26954;DHT22;14508;50.924;11.600;2023-07-13T04:09:02;19.80;57.70
26954;DHT22;14508;50.924;11.600;2023-07-13T04:11:32;19.90;57.70
26954;DHT22;14508;50.924;11.600;2023-07-13T04:14:03;19.90;57.60
26954;DHT22;14508;50.924;11.600;2023-07-13T04:16:31;19.90;57.60
26954;DHT22;14508;50.924;11.600;2023-07-13T04:18:59;19.90;57.60
26954;DHT22;14508;50.924;11.600;2023-07-13T04:21:28;19.90;57.60
26954;DHT22;14508;50.924;11.600;2023-07-13T04:23:58;19.90;57.60
26954;DHT22;14508;50.924;11.600;2023-07-13T04:26:26;19.90;57.70
26954;DHT22;14508;50.924;11.600;2023-07-13T04:28:55;19.90;57.90
26954;DHT22;14508;50.924;11.600;2023-07-13T04:31:23;19.80;58.00
26954;DHT22;14508;50.924;11.600;2023-07-13T04:33:51;19.80;58.20
26954;DHT22;14508;50.924;11.600;2023-07-13T04:36:19;19.70;58.30
26954;DHT22;14508;50.924;11.600;2023-07-13T04:38:47;19.60;58.50
26954;DHT22;14508;50.924;11.600;2023-07-13T04:41:17;19.60;58.70
26954;DHT22;14508;50.924;11.600;2023-07-13T04:43:45;19.60;58.80
26954;DHT22;14508;50.924;11.600;2023-07-13T04:46:15;19.60;58.90
26954;DHT22;14508;50.924;11.600;2023-07-13T04:48:45;19.60;59.20
26954;DHT22;14508;50.924;11.600;2023-07-13T04:51:13;19.60;59.20
26954;DHT22;14508;50.924;11.600;2023-07-13T04:53:40;19.60;59.30
26954;DHT22;14508;50.924;11.600;2023-07-13T04:56:08;19.50;59.40
26954;DHT22;14508;50.924;11.600;2023-07-13T04:58:38;19.50;60.00
26954;DHT22;14508;50.924;11.600;2023-07-13T05:01:07;19.50;59.60
26954;DHT22;14508;50.924;11.600;2023-07-13T05:03:36;19.50;60.10
26954;DHT22;14508;50.924;11.600;2023-07-13T05:06:06;19.40;60.50
26954;DHT22;14508;50.924;11.600;2023-07-13T05:08:36;19.40;61.00
26954;DHT22;14508;50.924;11.600;2023-07-13T05:11:05;19.40;61.50
26954;DHT22;14508;50.924;11.600;2023-07-13T05:13:34;19.50;62.10
26954;DHT22;14508;50.924;11.600;2023-07-13T05:16:04;19.50;62.30
26954;DHT22;14508;50.924;11.600;2023-07-13T05:18:35;19.50;62.50
26954;DHT22;14508;50.924;11.600;2023-07-13T05:21:08;19.60;62.70
26954;DHT22;14508;50.924;11.600;2023-07-13T05:23:37;19.70;62.50
26954;DHT22;14508;50.924;11.600;2023-07-13T05:26:05;19.80;61.80
26954;DHT22;14508;50.924;11.600;2023-07-13T05:28:35;20.00;61.10
26954;DHT22;14508;50.924;11.600;2023-07-13T05:31:06;20.10;60.20
26954;DHT22;14508;50.924;11.600;2023-07-13T05:33:34;20.20;59.80
26954;DHT22;14508;50.924;11.600;2023-07-13T05:36:03;20.40;59.40
26954;DHT22;14508;50.924;11.600;2023-07-13T05:38:31;20.50;59.10
26954;DHT22;14508;50.924;11.600;2023-07-13T05:40:59;20.60;58.80
26954;DHT22;14508;50.924;11.600;2023-07-13T05:43:31;20.80;58.70
26954;DHT22;14508;50.924;11.600;2023-07-13T05:45:59;20.90;58.40
26954;DHT22;14508;50.924;11.600;2023-07-13T05:48:28;21.10;58.10
26954;DHT22;14508;50.924;11.600;2023-07-13T05:50:56;21.20;57.70
26954;DHT22;14508;50.924;11.600;2023-07-13T05:53:24;21.30;57.50
26954;DHT22;14508;50.924;11.600;2023-07-13T05:55:54;21.40;57.20
26954;DHT22;14508;50.924;11.600;2023-07-13T05:58:24;21.50;57.20
26954;DHT22;14508;50.924;11.600;2023-07-13T06:00:59;21.50;57.10
26954;DHT22;14508;50.924;11.600;2023-07-13T06:03:29;21.60;57.00
26954;DHT22;14508;50.924;11.600;2023-07-13T06:05:57;21.60;56.90
26954;DHT22;14508;50.924;11.600;2023-07-13T06:08:27;21.60;56.90
26954;DHT22;14508;50.924;11.600;2023-07-13T06:11:01;21.50;57.00
26954;DHT22;14508;50.924;11.600;2023-07-13T06:13:29;21.60;57.00
26954;DHT22;14508;50.924;11.600;2023-07-13T06:15:57;21.80;56.90
26954;DHT22;14508;50.924;11.600;2023-07-13T06:18:25;22.00;56.50
26954;DHT22;14508;50.924;11.600;2023-07-13T06:20:54;22.20;56.10
26954;DHT22;14508;50.924;11.600;2023-07-13T06:23:23;22.40;55.80
26954;DHT22;14508;50.924;11.600;2023-07-13T06:25:51;22.60;55.60
26954;DHT22;14508;50.924;11.600;2023-07-13T06:28:19;22.70;55.40
26954;DHT22;14508;50.924;11.600;2023-07-13T06:30:47;22.80;55.30
26954;DHT22;14508;50.924;11.600;2023-07-13T06:33:15;22.70;55.30
26954;DHT22;14508;50.924;11.600;2023-07-13T06:35:43;22.80;54.90
26954;DHT22;14508;50.924;11.600;2023-07-13T06:38:12;22.90;54.70
26954;DHT22;14508;50.924;11.600;2023-07-13T06:40:40;22.90;54.50
26954;DHT22;14508;50.924;11.600;2023-07-13T06:43:09;22.80;54.40
26954;DHT22;14508;50.924;11.600;2023-07-13T06:45:41;22.80;54.60
26954;DHT22;14508;50.924;11.600;2023-07-13T06:48:09;22.70;55.00
26954;DHT22;14508;50.924;11.600;2023-07-13T06:50:37;22.70;55.10
26954;DHT22;14508;50.924;11.600;2023-07-13T06:53:05;22.80;55.00
26954;DHT22;14508;50.924;11.600;2023-07-13T06:55:34;22.90;54.90
26954;DHT22;14508;50.924;11.600;2023-07-13T06:58:02;22.90;54.30
26954;DHT22;14508;50.924;11.600;2023-07-13T07:00:30;22.90;54.40
26954;DHT22;14508;50.924;11.600;2023-07-13T07:02:58;22.70;54.60
26954;DHT22;14508;50.924;11.600;2023-07-13T07:05:26;22.40;54.90
26954;DHT22;14508;50.924;11.600;2023-07-13T07:07:55;22.30;55.20
26954;DHT22;14508;50.924;11.600;2023-07-13T07:10:23;22.30;55.10
26954;DHT22;14508;50.924;11.600;2023-07-13T07:12:52;22.50;55.00
26954;DHT22;14508;50.924;11.600;2023-07-13T07:15:20;22.50;54.50
26954;DHT22;14508;50.924;11.600;2023-07-13T07:17:47;22.70;54.30
26954;DHT22;14508;50.924;11.600;2023-07-13T07:20:16;22.80;54.30
26954;DHT22;14508;50.924;11.600;2023-07-13T07:22:43;23.00;54.10
26954;DHT22;14508;50.924;11.600;2023-07-13T07:25:12;23.10;53.20
26954;DHT22;14508;50.924;11.600;2023-07-13T07:27:39;23.30;53.20
26954;DHT22;14508;50.924;11.600;2023-07-13T07:30:12;23.50;52.90
26954;DHT22;14508;50.924;11.600;2023-07-13T07:32:43;23.70;52.00
26954;DHT22;14508;50.924;11.600;2023-07-13T07:35:14;23.80;51.40
26954;DHT22;14508;50.924;11.600;2023-07-13T07:37:42;24.00;51.30
26954;DHT22;14508;50.924;11.600;2023-07-13T07:40:12;24.00;50.90
26954;DHT22;14508;50.924;11.600;2023-07-13T07:42:44;24.00;50.80
26954;DHT22;14508;50.924;11.600;2023-07-13T07:45:14;24.00;50.60
26954;DHT22;14508;50.924;11.600;2023-07-13T07:47:42;23.90;50.50
26954;DHT22;14508;50.924;11.600;2023-07-13T07:50:10;23.80;50.70
26954;DHT22;14508;50.924;11.600;2023-07-13T07:52:38;23.70;50.80
26954;DHT22;14508;50.924;11.600;2023-07-13T07:55:07;23.60;51.10
26954;DHT22;14508;50.924;11.600;2023-07-13T07:57:38;23.60;51.20
26954;DHT22;14508;50.924;11.600;2023-07-13T08:00:11;23.50;50.90
26954;DHT22;14508;50.924;11.600;2023-07-13T08:02:44;23.60;51.10
26954;DHT22;14508;50.924;11.600;2023-07-13T08:05:15;23.60;50.70
26954;DHT22;14508;50.924;11.600;2023-07-13T08:07:46;23.60;50.80
26954;DHT22;14508;50.924;11.600;2023-07-13T08:10:14;23.80;50.70
26954;DHT22;14508;50.924;11.600;2023-07-13T08:12:42;23.90;50.70
26954;DHT22;14508;50.924;11.600;2023-07-13T08:15:30;24.10;50.30
26954;DHT22;14508;50.924;11.600;2023-07-13T08:17:59;24.30;49.90
26954;DHT22;14508;50.924;11.600;2023-07-13T08:20:27;24.50;49.60
26954;DHT22;14508;50.924;11.600;2023-07-13T08:22:55;24.70;49.30
26954;DHT22;14508;50.924;11.600;2023-07-13T08:25:23;24.80;49.00
26954;DHT22;14508;50.924;11.600;2023-07-13T08:27:51;24.90;49.10
26954;DHT22;14508;50.924;11.600;2023-07-13T08:30:19;24.90;49.00
26954;DHT22;14508;50.924;11.600;2023-07-13T08:32:47;24.80;48.50
26954;DHT22;14508;50.924;11.600;2023-07-13T08:35:16;24.60;48.50
26954;DHT22;14508;50.924;11.600;2023-07-13T08:37:44;24.40;48.20
26954;DHT22;14508;50.924;11.600;2023-07-13T08:40:13;24.10;47.60
26954;DHT22;14508;50.924;11.600;2023-07-13T08:42:44;24.00;47.80
26954;DHT22;14508;50.924;11.600;2023-07-13T08:45:17;23.90;47.90
26954;DHT22;14508;50.924;11.600;2023-07-13T08:47:51;23.80;48.20
26954;DHT22;14508;50.924;11.600;2023-07-13T08:50:25;23.80;48.30
26954;DHT22;14508;50.924;11.600;2023-07-13T08:52:56;24.00;47.60
26954;DHT22;14508;50.924;11.600;2023-07-13T08:55:29;24.20;47.70
26954;DHT22;14508;50.924;11.600;2023-07-13T08:58:03;24.40;46.60
26954;DHT22;14508;50.924;11.600;2023-07-13T09:00:39;24.40;46.10
26954;DHT22;14508;50.924;11.600;2023-07-13T09:03:18;24.60;45.90
26954;DHT22;14508;50.924;11.600;2023-07-13T09:05:52;24.90;45.70
26954;DHT22;14508;50.924;11.600;2023-07-13T09:08:34;25.10;45.10
26954;DHT22;14508;50.924;11.600;2023-07-13T09:11:14;25.00;43.10
26954;DHT22;14508;50.924;11.600;2023-07-13T09:13:50;24.80;43.00
26954;DHT22;14508;50.924;11.600;2023-07-13T09:16:20;24.60;43.40
26954;DHT22;14508;50.924;11.600;2023-07-13T09:18:51;24.50;43.30
26954;DHT22;14508;50.924;11.600;2023-07-13T09:21:24;24.40;43.50
26954;DHT22;14508;50.924;11.600;2023-07-13T09:23:55;24.40;43.50
26954;DHT22;14508;50.924;11.600;2023-07-13T09:26:25;24.30;43.50
26954;DHT22;14508;50.924;11.600;2023-07-13T09:28:59;24.40;43.60
26954;DHT22;14508;50.924;11.600;2023-07-13T09:31:33;24.30;43.50
26954;DHT22;14508;50.924;11.600;2023-07-13T09:34:02;24.40;43.40
26954;DHT22;14508;50.924;11.600;2023-07-13T09:36:33;24.40;43.10
26954;DHT22;14508;50.924;11.600;2023-07-13T09:39:04;24.40;42.80
26954;DHT22;14508;50.924;11.600;2023-07-13T09:41:39;24.40;43.10
26954;DHT22;14508;50.924;11.600;2023-07-13T09:44:10;24.50;43.30
26954;DHT22;14508;50.924;11.600;2023-07-13T09:46:42;24.60;43.20
26954;DHT22;14508;50.924;11.600;2023-07-13T09:49:11;24.70;43.00
26954;DHT22;14508;50.924;11.600;2023-07-13T09:51:42;24.80;43.10
26954;DHT22;14508;50.924;11.600;2023-07-13T09:54:21;25.10;43.30
26954;DHT22;14508;50.924;11.600;2023-07-13T09:56:54;25.60;43.10
26954;DHT22;14508;50.924;11.600;2023-07-13T09:59:27;25.80;42.50
26954;DHT22;14508;50.924;11.600;2023-07-13T10:01:56;25.90;41.50
26954;DHT22;14508;50.924;11.600;2023-07-13T10:04:29;25.70;40.50
26954;DHT22;14508;50.924;11.600;2023-07-13T10:07:06;25.50;40.50
26954;DHT22;14508;50.924;11.600;2023-07-13T10:09:55;25.20;40.00
26954;DHT22;14508;50.924;11.600;2023-07-13T10:12:24;25.00;39.20
26954;DHT22;14508;50.924;11.600;2023-07-13T10:14:55;24.90;39.30
26954;DHT22;14508;50.924;11.600;2023-07-13T10:17:38;24.80;39.20
26954;DHT22;14508;50.924;11.600;2023-07-13T10:20:07;24.90;39.40
26954;DHT22;14508;50.924;11.600;2023-07-13T10:22:45;25.00;39.30
26954;DHT22;14508;50.924;11.600;2023-07-13T10:25:19;25.30;39.20
26954;DHT22;14508;50.924;11.600;2023-07-13T10:27:51;25.50;38.40
26954;DHT22;14508;50.924;11.600;2023-07-13T10:30:21;25.40;38.60
26954;DHT22;14508;50.924;11.600;2023-07-13T10:32:52;25.20;38.80
26954;DHT22;14508;50.924;11.600;2023-07-13T10:35:22;25.10;38.80
26954;DHT22;14508;50.924;11.600;2023-07-13T10:37:55;25.20;38.40
26954;DHT22;14508;50.924;11.600;2023-07-13T10:40:31;25.30;38.30
26954;DHT22;14508;50.924;11.600;2023-07-13T10:43:06;25.50;38.00
26954;DHT22;14508;50.924;11.600;2023-07-13T10:45:40;25.80;37.90
26954;DHT22;14508;50.924;11.600;2023-07-13T10:48:10;26.10;37.10
26954;DHT22;14508;50.924;11.600;2023-07-13T10:50:45;26.30;37.50
26954;DHT22;14508;50.924;11.600;2023-07-13T10:53:27;26.40;37.20
26954;DHT22;14508;50.924;11.600;2023-07-13T10:55:59;26.30;37.50
26954;DHT22;14508;50.924;11.600;2023-07-13T10:58:33;26.20;37.60
26954;DHT22;14508;50.924;11.600;2023-07-13T11:01:08;26.10;37.40
26954;DHT22;14508;50.924;11.600;2023-07-13T11:03:47;26.10;37.20
26954;DHT22;14508;50.924;11.600;2023-07-13T11:06:30;26.10;37.40
26954;DHT22;14508;50.924;11.600;2023-07-13T11:12:08;26.10;37.40
26954;DHT22;14508;50.924;11.600;2023-07-13T11:15:05;26.10;36.80
26954;DHT22;14508;50.924;11.600;2023-07-13T11:17:47;26.20;37.30
26954;DHT22;14508;50.924;11.600;2023-07-13T11:20:32;26.40;36.80
26954;DHT22;14508;50.924;11.600;2023-07-13T11:23:28;26.40;36.90
26954;DHT22;14508;50.924;11.600;2023-07-13T11:25:58;26.30;37.50
26954;DHT22;14508;50.924;11.600;2023-07-13T11:28:33;26.10;37.70
26954;DHT22;14508;50.924;11.600;2023-07-13T11:31:12;26.00;37.70
26954;DHT22;14508;50.924;11.600;2023-07-13T11:33:52;26.10;37.70
26954;DHT22;14508;50.924;11.600;2023-07-13T11:36:23;26.10;37.40
26954;DHT22;14508;50.924;11.600;2023-07-13T11:39:00;26.10;37.50
26954;DHT22;14508;50.924;11.600;2023-07-13T11:41:35;26.00;37.80
26954;DHT22;14508;50.924;11.600;2023-07-13T11:44:16;26.10;37.40
26954;DHT22;14508;50.924;11.600;2023-07-13T11:46:46;26.30;37.40
26954;DHT22;14508;50.924;11.600;2023-07-13T11:49:20;26.50;36.80
26954;DHT22;14508;50.924;11.600;2023-07-13T11:51:51;26.40;36.90
26954;DHT22;14508;50.924;11.600;2023-07-13T11:54:27;26.20;37.40
26954;DHT22;14508;50.924;11.600;2023-07-13T11:57:00;26.20;37.40
26954;DHT22;14508;50.924;11.600;2023-07-13T11:59:30;26.30;37.40
26954;DHT22;14508;50.924;11.600;2023-07-13T12:01:59;26.40;37.70
26954;DHT22;14508;50.924;11.600;2023-07-13T12:04:29;26.40;37.60
26954;DHT22;14508;50.924;11.600;2023-07-13T12:07:05;26.40;37.40
26954;DHT22;14508;50.924;11.600;2023-07-13T12:09:35;26.40;37.40
26954;DHT22;14508;50.924;11.600;2023-07-13T12:12:11;26.30;37.70
26954;DHT22;14508;50.924;11.600;2023-07-13T12:14:39;26.40;37.80
26954;DHT22;14508;50.924;11.600;2023-07-13T12:17:15;26.40;37.40
26954;DHT22;14508;50.924;11.600;2023-07-13T12:19:43;26.70;37.40
26954;DHT22;14508;50.924;11.600;2023-07-13T12:22:12;26.80;37.00
26954;DHT22;14508;50.924;11.600;2023-07-13T12:24:41;26.90;36.80
26954;DHT22;14508;50.924;11.600;2023-07-13T12:27:20;27.00;36.80
26954;DHT22;14508;50.924;11.600;2023-07-13T12:29:50;27.20;36.70
26954;DHT22;14508;50.924;11.600;2023-07-13T12:32:20;27.30;36.50
26954;DHT22;14508;50.924;11.600;2023-07-13T12:34:53;27.30;36.20
26954;DHT22;14508;50.924;11.600;2023-07-13T12:37:23;27.30;36.10
26954;DHT22;14508;50.924;11.600;2023-07-13T12:39:52;27.20;36.50
26954;DHT22;14508;50.924;11.600;2023-07-13T12:42:24;27.00;36.60
26954;DHT22;14508;50.924;11.600;2023-07-13T12:45:00;26.80;36.50
26954;DHT22;14508;50.924;11.600;2023-07-13T12:47:28;26.70;37.00
26954;DHT22;14508;50.924;11.600;2023-07-13T12:49:59;26.60;37.00
26954;DHT22;14508;50.924;11.600;2023-07-13T12:52:30;26.60;37.40
26954;DHT22;14508;50.924;11.600;2023-07-13T12:55:06;26.70;37.10
26954;DHT22;14508;50.924;11.600;2023-07-13T12:57:41;26.90;37.20
26954;DHT22;14508;50.924;11.600;2023-07-13T13:00:25;27.10;37.20
26954;DHT22;14508;50.924;11.600;2023-07-13T13:02:56;27.30;37.10
26954;DHT22;14508;50.924;11.600;2023-07-13T13:05:45;27.40;36.60
26954;DHT22;14508;50.924;11.600;2023-07-13T13:08:13;27.30;36.90
26954;DHT22;14508;50.924;11.600;2023-07-13T13:10:41;27.30;36.60
26954;DHT22;14508;50.924;11.600;2023-07-13T13:13:10;27.40;36.40
26954;DHT22;14508;50.924;11.600;2023-07-13T13:15:39;27.50;36.10
26954;DHT22;14508;50.924;11.600;2023-07-13T13:18:15;27.60;36.10
26954;DHT22;14508;50.924;11.600;2023-07-13T13:20:45;27.50;35.90
26954;DHT22;14508;50.924;11.600;2023-07-13T13:23:13;27.30;36.00
26954;DHT22;14508;50.924;11.600;2023-07-13T13:25:45;27.20;36.00
26954;DHT22;14508;50.924;11.600;2023-07-13T13:28:16;27.20;36.30
26954;DHT22;14508;50.924;11.600;2023-07-13T13:30:45;27.20;36.40
26954;DHT22;14508;50.924;11.600;2023-07-13T13:33:16;27.20;36.30
26954;DHT22;14508;50.924;11.600;2023-07-13T13:35:45;27.10;35.90
26954;DHT22;14508;50.924;11.600;2023-07-13T13:38:13;27.10;36.30
26954;DHT22;14508;50.924;11.600;2023-07-13T13:40:43;27.30;36.40
26954;DHT22;14508;50.924;11.600;2023-07-13T13:43:16;27.50;36.30
26954;DHT22;14508;50.924;11.600;2023-07-13T13:45:45;27.70;36.40
26954;DHT22;14508;50.924;11.600;2023-07-13T13:48:15;27.80;35.50
26954;DHT22;14508;50.924;11.600;2023-07-13T13:50:44;27.70;35.40
26954;DHT22;14508;50.924;11.600;2023-07-13T13:53:13;27.60;35.60
26954;DHT22;14508;50.924;11.600;2023-07-13T13:55:41;27.40;35.50
26954;DHT22;14508;50.924;11.600;2023-07-13T13:58:10;27.20;35.60
26954;DHT22;14508;50.924;11.600;2023-07-13T14:00:40;27.10;36.00
26954;DHT22;14508;50.924;11.600;2023-07-13T14:03:14;27.10;36.20
26954;DHT22;14508;50.924;11.600;2023-07-13T14:05:43;27.30;35.90
26954;DHT22;14508;50.924;11.600;2023-07-13T14:08:14;27.20;36.10
26954;DHT22;14508;50.924;11.600;2023-07-13T14:10:44;27.10;36.40
26954;DHT22;14508;50.924;11.600;2023-07-13T14:13:16;27.10;36.00
26954;DHT22;14508;50.924;11.600;2023-07-13T14:15:46;27.10;36.20
26954;DHT22;14508;50.924;11.600;2023-07-13T14:18:15;27.20;36.10
26954;DHT22;14508;50.924;11.600;2023-07-13T14:20:45;27.30;36.20
26954;DHT22;14508;50.924;11.600;2023-07-13T14:23:14;27.50;36.30
26954;DHT22;14508;50.924;11.600;2023-07-13T14:25:42;27.60;35.90
26954;DHT22;14508;50.924;11.600;2023-07-13T14:28:19;27.80;35.60
26954;DHT22;14508;50.924;11.600;2023-07-13T14:30:50;27.90;35.50
26954;DHT22;14508;50.924;11.600;2023-07-13T14:33:18;27.90;35.40
26954;DHT22;14508;50.924;11.600;2023-07-13T14:35:48;27.90;35.20
26954;DHT22;14508;50.924;11.600;2023-07-13T14:38:18;27.80;35.10
26954;DHT22;14508;50.924;11.600;2023-07-13T14:40:47;27.70;35.40
26954;DHT22;14508;50.924;11.600;2023-07-13T14:43:16;27.70;35.40
26954;DHT22;14508;50.924;11.600;2023-07-13T14:45:47;27.70;35.50
26954;DHT22;14508;50.924;11.600;2023-07-13T14:48:19;27.70;35.60
26954;DHT22;14508;50.924;11.600;2023-07-13T14:50:52;27.80;35.60
26954;DHT22;14508;50.924;11.600;2023-07-13T14:53:21;27.80;35.20
26954;DHT22;14508;50.924;11.600;2023-07-13T14:55:49;27.80;35.10
26954;DHT22;14508;50.924;11.600;2023-07-13T14:58:18;27.80;35.30
26954;DHT22;14508;50.924;11.600;2023-07-13T15:00:46;27.90;35.30
26954;DHT22;14508;50.924;11.600;2023-07-13T15:03:19;27.90;35.20
26954;DHT22;14508;50.924;11.600;2023-07-13T15:05:49;28.10;35.00
26954;DHT22;14508;50.924;11.600;2023-07-13T15:08:17;28.40;35.10
26954;DHT22;14508;50.924;11.600;2023-07-13T15:10:45;28.70;34.60
26954;DHT22;14508;50.924;11.600;2023-07-13T15:13:15;28.60;34.30
26954;DHT22;14508;50.924;11.600;2023-07-13T15:15:47;28.50;33.90
26954;DHT22;14508;50.924;11.600;2023-07-13T15:18:19;28.40;34.20
26954;DHT22;14508;50.924;11.600;2023-07-13T15:20:50;28.30;34.10
26954;DHT22;14508;50.924;11.600;2023-07-13T15:23:20;28.20;33.70
26954;DHT22;14508;50.924;11.600;2023-07-13T15:25:49;28.10;33.90
26954;DHT22;14508;50.924;11.600;2023-07-13T15:28:18;28.10;34.00
26954;DHT22;14508;50.924;11.600;2023-07-13T15:30:48;28.10;33.80
26954;DHT22;14508;50.924;11.600;2023-07-13T15:33:22;28.40;34.00
26954;DHT22;14508;50.924;11.600;2023-07-13T15:35:51;28.90;33.90
26954;DHT22;14508;50.924;11.600;2023-07-13T15:38:22;29.40;33.30